• Join FlightAware (Why Join?)
  • Login
  • US Flag 
09:31PM EDT


 

Airport Tracker/Info


-or-


 

Live Flight TrackerFlight Track Log ✈ PDT4207 ✈ 03-Nov-2013 ✈ KPHL - KBGM

Flight Track Log - Related Links

Times and Time Zones

All times are in EST time to prevent confusion due to time zone crossing. See the PDT4207 flight status page for this flight to view local times or setup timezone preferences in your user account.

Time Position Orientation Groundspeed Altitude Reporting Facility
EST Latitude Longitude Course Direction KTS MPH feet Rate Location/Type
09:31PM 39.8833 -75.2333 350° North 113 130 500  Level Philadelphia TRACON
09:32PM 39.9167 -75.2500 339° North 115 132 1,600 1,320 Climbing Philadelphia TRACON
09:33PM 39.9500 -75.2667 339° North 126 145 2,800 660 Climbing Philadelphia TRACON
09:34PM 40.0450 -75.2937 349° North  Level Estimated
09:34PM 39.9833 -75.3000 323° Northwest 170 196 3,000  Level Philadelphia TRACON
09:35PM 40.1033 -75.3065 350° North  Level FlightAware Approximate
09:35PM 40.0333 -75.3000 360° North 169 194 3,700  Level Philadelphia TRACON
09:36PM 40.1616 -75.3194 350° North  Level FlightAware Approximate
09:36PM 40.0667 -75.3167 339° North 166 191 4,000  Level Philadelphia TRACON
09:38PM 40.1691 -75.3094 349° North  Level FlightAware Approximate
09:45PM 40.5752 -75.4146 349° North  Level FlightAware Approximate
09:46PM 40.6334 -75.4291 349° North  Level FlightAware Approximate
09:47PM 40.6915 -75.4437 349° North  Level FlightAware Approximate
09:48PM 40.7502 -75.4500 North  Level FlightAware Approximate
09:49PM 40.8093 -75.4500 North  Level FlightAware Approximate
09:50PM 40.8685 -75.4500 North  Level FlightAware Approximate
09:51PM 40.9276 -75.4500 North  Level FlightAware Approximate
09:52PM 40.9867 -75.4500 North  Level FlightAware Approximate
09:53PM 41.0459 -75.4510 357° North  Level FlightAware Approximate
09:54PM 41.1049 -75.4555 357° North  Level FlightAware Approximate
09:55PM 41.1640 -75.4600 357° North  Level FlightAware Approximate
09:56PM 41.2230 -75.4646 357° North  Level FlightAware Approximate
09:57PM 41.2821 -75.4667 North  Level FlightAware Approximate
09:58PM 41.3413 -75.4667 North  Level FlightAware Approximate
09:59PM 41.4004 -75.4667 North  Level FlightAware Approximate
10:00PM 41.4595 -75.4667 North  Level FlightAware Approximate
10:01PM 41.5084 -75.5082 323° Northwest  Level FlightAware Approximate
10:02PM 41.5557 -75.5555 323° Northwest  Level FlightAware Approximate
10:03PM 41.6031 -75.6028 323° Northwest  Level FlightAware Approximate
10:04PM 41.6504 -75.6503 323° Northwest  Level FlightAware Approximate
10:05PM 41.6978 -75.6977 323° Northwest  Level FlightAware Approximate
10:06PM 41.7460 -75.7436 326° Northwest  Level FlightAware Approximate
10:07PM 41.7947 -75.7885 326° Northwest  Level FlightAware Approximate
10:08PM 41.8435 -75.8335 325° Northwest  Level FlightAware Approximate
10:09PM 41.8922 -75.8785 325° Northwest  Level FlightAware Approximate
10:10PM 41.9407 -75.9240 323° Northwest  Level FlightAware Approximate
10:11PM 41.9882 -75.9715 323° Northwest  Level FlightAware Approximate
10:12PM 42.0356 -76.0189 323° Northwest  Level FlightAware Approximate
10:13PM 42.0831 -76.0664 323° Northwest  Level FlightAware Approximate
10:14PM 42.1306 -76.1139 323° Northwest  Level FlightAware Approximate
10:15PM 42.1583 -76.0917 37° Northeast  Level FlightAware Approximate
10:16PM 42.1898 -76.0255 62° Northeast  Level FlightAware Approximate
10:17PM 42.2000 -75.9667 90° East  Level FlightAware Approximate
10:18PM 42.2084 -75.9796 90° East  Level Estimated
10:19PM 42.2084 -75.9796 90° East  Level Estimated
10:20PM 42.2084 -75.9796 90° East  Level Estimated